createdAt,value
2018-12-19T00:01:18.137Z,59242.12
2018-12-19T00:03:46.641Z,59265.75
2018-12-19T00:06:15.119Z,59234.93
2018-12-19T00:08:43.659Z,59230.82
2018-12-19T00:11:12.182Z,59277.05
2018-12-19T00:13:40.659Z,59249.31
2018-12-19T00:16:09.339Z,59266.78
2018-12-19T00:18:38.235Z,59270.89
2018-12-19T00:21:07.255Z,59238.01
2018-12-19T00:23:35.853Z,59229.79
2018-12-19T00:26:05.203Z,59263.70
2018-12-19T00:28:33.693Z,59224.65
2018-12-19T00:31:03.295Z,59255.48
2018-12-19T00:33:32.189Z,59239.04
2018-12-19T00:36:00.670Z,59247.26
2018-12-19T00:38:29.155Z,59251.37
2018-12-19T00:40:57.640Z,59252.39
2018-12-19T00:43:26.110Z,59234.93
2018-12-19T00:45:54.637Z,59236.98
2018-12-19T00:48:23.106Z,59276.02
2018-12-19T00:50:51.583Z,59251.37
2018-12-19T00:53:20.139Z,59282.19
2018-12-19T00:55:48.624Z,59276.02
2018-12-19T00:58:17.144Z,59256.50
2018-12-19T01:00:45.639Z,59258.56
2018-12-19T01:03:14.682Z,59253.42
2018-12-19T01:05:43.215Z,59211.30
2018-12-19T01:08:11.707Z,59243.15
2018-12-19T01:10:40.203Z,59210.27
2018-12-19T01:13:08.698Z,59247.26
2018-12-19T01:15:37.219Z,59223.63
2018-12-19T01:18:06.075Z,59239.04
2018-12-19T01:20:34.619Z,59231.85
2018-12-19T01:23:04.494Z,59263.70
2018-12-19T01:25:32.979Z,59257.53
2018-12-19T01:28:03.712Z,59234.93
2018-12-19T01:30:32.182Z,59257.53
2018-12-19T01:33:00.654Z,59295.54
2018-12-19T01:35:29.152Z,59228.76
2018-12-19T01:37:57.736Z,59229.79
2018-12-19T01:40:26.400Z,59252.39
2018-12-19T01:42:54.887Z,59227.74
2018-12-19T01:45:23.358Z,59222.60
2018-12-19T01:47:52.110Z,59239.04
2018-12-19T01:50:20.579Z,59250.34
2018-12-19T01:52:49.042Z,59251.37
2018-12-19T01:55:17.516Z,59251.37
2018-12-19T01:57:46.015Z,59282.19
2018-12-19T02:00:14.703Z,59251.37
2018-12-19T02:02:43.165Z,59214.38
2018-12-19T02:05:11.660Z,59257.53
2018-12-19T02:07:40.297Z,59245.20
2018-12-19T02:10:08.831Z,59257.53
2018-12-19T02:12:38.914Z,59270.89
2018-12-19T02:15:07.616Z,59258.56
2018-12-19T02:17:37.868Z,59234.93
2018-12-19T02:20:06.677Z,59291.43
2018-12-19T02:22:35.260Z,59252.39
2018-12-19T02:25:05.303Z,59224.65
2018-12-19T02:27:33.769Z,59277.05
2018-12-19T02:30:05.348Z,59228.76
2018-12-19T02:32:33.870Z,59216.43
2018-12-19T02:35:05.913Z,59220.54
2018-12-19T02:37:34.410Z,59226.71
2018-12-19T02:40:06.176Z,59222.60
2018-12-19T02:42:34.733Z,59240.07
2018-12-19T02:45:04.606Z,59232.87
2018-12-19T02:47:33.427Z,59221.57
2018-12-19T02:50:03.515Z,59250.34
2018-12-19T02:52:31.998Z,59215.41
2018-12-19T02:55:00.501Z,59251.37
2018-12-19T02:57:29.061Z,59203.08
2018-12-19T02:59:57.544Z,59255.48
2018-12-19T03:02:26.314Z,59238.01
2018-12-19T03:04:54.899Z,59234.93
2018-12-19T03:07:23.413Z,59206.16
2018-12-19T03:09:52.046Z,59222.60
2018-12-19T03:12:20.525Z,59246.23
2018-12-19T03:14:49.031Z,59254.45
2018-12-19T03:17:17.484Z,59228.76
2018-12-19T03:19:46.001Z,59253.42
2018-12-19T03:22:14.477Z,59221.57
2018-12-19T03:24:42.989Z,59218.49
2018-12-19T03:27:11.474Z,59229.79
2018-12-19T03:29:39.965Z,59201.02
2018-12-19T03:32:08.920Z,59215.41
2018-12-19T03:34:37.423Z,59186.64
2018-12-19T03:37:05.961Z,59216.43
2018-12-19T03:39:34.445Z,59219.52
2018-12-19T03:42:04.999Z,59173.29
2018-12-19T03:44:33.846Z,59188.70
2018-12-19T03:47:04.130Z,59197.94
2018-12-19T03:49:32.939Z,59226.71
2018-12-19T03:52:03.395Z,59215.41
2018-12-19T03:54:32.019Z,59207.19
2018-12-19T03:57:00.815Z,59168.15
2018-12-19T03:59:30.131Z,59210.27
2018-12-19T04:01:58.595Z,59203.08
2018-12-19T04:04:27.345Z,59197.94
2018-12-19T04:06:56.242Z,59179.45
2018-12-19T04:09:24.720Z,59187.67
2018-12-19T04:11:53.198Z,59216.43
2018-12-19T04:14:21.678Z,59206.16
2018-12-19T04:16:50.154Z,59208.21
2018-12-19T04:19:18.617Z,59229.79
2018-12-19T04:21:47.119Z,59228.76
2018-12-19T04:24:15.619Z,59240.07
2018-12-19T04:26:44.327Z,59191.78
2018-12-19T04:29:12.848Z,59211.30
2018-12-19T04:31:41.482Z,59193.83
2018-12-19T04:34:10.395Z,59201.02
2018-12-19T04:36:38.865Z,59231.85
2018-12-19T04:39:07.675Z,59222.60
2018-12-19T04:41:36.149Z,59209.24
2018-12-19T04:44:05.617Z,59202.05
2018-12-19T04:46:34.171Z,59201.02
2018-12-19T04:49:03.838Z,59201.02
2018-12-19T04:51:32.305Z,59213.35
2018-12-19T04:54:00.807Z,59177.39
2018-12-19T04:56:29.287Z,59241.09
2018-12-19T04:58:57.746Z,59212.32
2018-12-19T05:01:26.476Z,59198.97
2018-12-19T05:03:54.957Z,59195.89
2018-12-19T05:06:23.426Z,59188.70
2018-12-19T05:08:52.878Z,59217.46
2018-12-19T05:11:21.364Z,59198.97
2018-12-19T05:13:49.858Z,59194.86
2018-12-19T05:16:18.706Z,59207.19
2018-12-19T05:18:47.214Z,59229.79
2018-12-19T05:21:15.730Z,59202.05
2018-12-19T05:23:44.282Z,59218.49
2018-12-19T05:26:12.851Z,59221.57
2018-12-19T05:28:42.043Z,59221.57
2018-12-19T05:31:10.665Z,59223.63
2018-12-19T05:33:39.237Z,59203.08
2018-12-19T05:36:07.994Z,59210.27
2018-12-19T05:38:36.483Z,59211.30
2018-12-19T05:41:05.391Z,59165.07
2018-12-19T05:43:34.188Z,59180.48
2018-12-19T05:46:04.507Z,59182.53
2018-12-19T05:48:32.958Z,59200.00
2018-12-19T05:51:02.515Z,59193.83
2018-12-19T05:53:30.987Z,59220.54
2018-12-19T05:55:59.672Z,59204.11
2018-12-19T05:58:28.152Z,59212.32
2018-12-19T06:00:56.642Z,59220.54
2018-12-19T06:03:25.121Z,59240.07
2018-12-19T06:05:53.867Z,59214.38
2018-12-19T06:08:22.425Z,59218.49
2018-12-19T06:10:51.251Z,59203.08
2018-12-19T06:13:19.838Z,59207.19
2018-12-19T06:15:48.303Z,59219.52
2018-12-19T06:18:20.263Z,59216.43
2018-12-19T06:20:48.741Z,59217.46
2018-12-19T06:23:17.331Z,59197.94
2018-12-19T06:25:45.915Z,59210.27
2018-12-19T06:28:14.618Z,59171.23
2018-12-19T06:30:43.260Z,59155.82
2018-12-19T06:33:12.001Z,59186.64
2018-12-19T06:35:40.510Z,59206.16
2018-12-19T06:38:08.983Z,59160.96
2018-12-19T06:40:37.545Z,59175.34
2018-12-19T06:43:06.288Z,59207.19
2018-12-19T06:45:34.871Z,59188.70
2018-12-19T06:48:04.962Z,59159.93
2018-12-19T06:50:33.461Z,59200.00
2018-12-19T06:53:04.264Z,59187.67
2018-12-19T06:55:50.621Z,59172.26
2018-12-19T06:58:19.474Z,59207.19
2018-12-19T07:00:47.959Z,59185.61
2018-12-19T07:03:16.455Z,59189.72
2018-12-19T07:05:45.236Z,59204.11
2018-12-19T07:08:13.773Z,59202.05
2018-12-19T07:10:42.309Z,59164.04
2018-12-19T07:13:10.874Z,59177.39
2018-12-19T07:15:40.289Z,59177.39
2018-12-19T07:18:08.839Z,59214.38
2018-12-19T07:20:44.932Z,59215.41
2018-12-19T07:23:15.004Z,59186.64
2018-12-19T07:25:44.546Z,59180.48
2018-12-19T07:28:13.306Z,59207.19
2018-12-19T07:30:42.567Z,59184.59
2018-12-19T07:33:11.174Z,59197.94
2018-12-19T07:35:39.898Z,59212.32
2018-12-19T07:38:08.481Z,59151.71
2018-12-19T07:40:37.714Z,59186.64
2018-12-19T07:43:06.252Z,59180.48
2018-12-19T07:45:35.693Z,59209.24
2018-12-19T07:48:05.231Z,59189.72
2018-12-19T07:50:35.345Z,59172.26
2018-12-19T07:53:05.952Z,59203.08
2018-12-19T07:55:37.468Z,59191.78
2018-12-19T07:58:08.450Z,59188.70
2018-12-19T08:00:41.385Z,59153.77
2018-12-19T08:03:10.373Z,59191.78
2018-12-19T08:05:39.379Z,59178.42
2018-12-19T08:08:35.816Z,59168.15
2018-12-19T08:11:06.883Z,59214.38
2018-12-19T08:13:35.524Z,59182.53
2018-12-19T08:16:05.452Z,59177.39
2018-12-19T08:18:34.008Z,59171.23
2018-12-19T08:21:05.210Z,59194.86
2018-12-19T08:23:35.464Z,59180.48
2018-12-19T08:26:12.747Z,59167.12
2018-12-19T08:29:09.859Z,59197.94
2018-12-19T08:31:40.275Z,59186.64
2018-12-19T08:39:54.276Z,59150.68
2018-12-19T08:42:22.759Z,59198.97
2018-12-19T08:44:51.498Z,59140.41
2018-12-19T08:47:20.480Z,59129.11
2018-12-19T08:49:48.961Z,59157.88
2018-12-19T08:52:17.452Z,59150.68
2018-12-19T08:54:46.247Z,59151.71
2018-12-19T08:57:14.727Z,59109.59
2018-12-19T08:59:43.224Z,59185.61
2018-12-19T09:02:12.102Z,59176.37
2018-12-19T09:04:40.645Z,59179.45
2018-12-19T09:07:09.507Z,59154.79
2018-12-19T09:09:38.011Z,59176.37
2018-12-19T09:12:06.590Z,59173.29
2018-12-19T09:14:35.223Z,59169.18
2018-12-19T09:17:07.784Z,59170.20
2018-12-19T09:19:36.613Z,59139.38
2018-12-19T09:22:05.896Z,59123.97
2018-12-19T09:24:34.408Z,59177.39
2018-12-19T09:27:04.519Z,59189.72
2018-12-19T09:29:32.998Z,59131.16
2018-12-19T09:32:02.695Z,59140.41
2018-12-19T09:34:31.214Z,59149.66
2018-12-19T09:36:59.706Z,59143.49
2018-12-19T09:39:28.209Z,59128.08
2018-12-19T09:41:56.694Z,59154.79
2018-12-19T09:44:25.173Z,59165.07
2018-12-19T09:46:53.664Z,59167.12
2018-12-19T09:49:22.155Z,59153.77
2018-12-19T09:51:50.626Z,59126.03
2018-12-19T09:54:19.132Z,59165.07
2018-12-19T09:56:47.648Z,59130.14
2018-12-19T09:59:16.197Z,59122.94
2018-12-19T10:01:44.688Z,59142.46
2018-12-19T10:04:13.167Z,59123.97
2018-12-19T10:06:41.665Z,59142.46
2018-12-19T10:09:14.738Z,59146.57
2018-12-19T10:11:40.728Z,59111.64
2018-12-19T10:14:09.292Z,59125.00
2018-12-19T10:16:37.760Z,59138.36
2018-12-19T10:19:06.247Z,59138.36
2018-12-19T10:21:34.787Z,59164.04
2018-12-19T10:24:04.483Z,59163.01
2018-12-19T10:26:32.945Z,59139.38
2018-12-19T10:29:02.898Z,59127.05
2018-12-19T10:31:31.398Z,59122.94
2018-12-19T10:33:59.870Z,59122.94
2018-12-19T10:36:33.644Z,59103.42
2018-12-19T10:39:03.794Z,59114.72
2018-12-19T10:41:32.825Z,59118.83
2018-12-19T10:44:02.742Z,59152.74
2018-12-19T10:46:31.198Z,59121.92
2018-12-19T10:48:59.714Z,59106.50
2018-12-19T10:51:29.145Z,59144.52
2018-12-19T10:53:57.622Z,59110.61
2018-12-19T10:56:26.107Z,59096.23
2018-12-19T10:58:54.572Z,59135.27
2018-12-19T11:01:23.060Z,59096.23
2018-12-19T11:03:51.615Z,59135.27
2018-12-19T11:06:20.108Z,59073.63
2018-12-19T11:08:48.774Z,59078.77
2018-12-19T11:11:17.370Z,59105.48
2018-12-19T11:13:46.041Z,59105.48
2018-12-19T11:16:14.572Z,59128.08
2018-12-19T11:18:43.081Z,59125.00
2018-12-19T11:21:12.581Z,59122.94
2018-12-19T11:23:41.340Z,59135.27
2018-12-19T11:26:10.053Z,59142.46
2018-12-19T11:28:38.522Z,59075.69
2018-12-19T11:31:07.025Z,59137.33
2018-12-19T11:33:35.629Z,59089.04
2018-12-19T11:36:05.537Z,59120.89
2018-12-19T11:38:34.283Z,59102.39
2018-12-19T11:41:04.632Z,59101.37
2018-12-19T11:43:33.138Z,59123.97
2018-12-19T11:46:02.977Z,59103.42
2018-12-19T11:48:31.450Z,59099.31
2018-12-19T11:51:00.163Z,59099.31
2018-12-19T11:53:28.714Z,59091.09
2018-12-19T11:55:57.258Z,59100.34
2018-12-19T11:58:25.975Z,59112.67
2018-12-19T12:00:54.605Z,59093.15
2018-12-19T12:03:23.111Z,59098.29
2018-12-19T12:05:51.671Z,59094.18
2018-12-19T12:08:20.540Z,59086.98
2018-12-19T12:10:48.993Z,59093.15
2018-12-19T12:13:17.467Z,59101.37
2018-12-19T12:15:46.160Z,59083.91
2018-12-19T12:18:14.703Z,59076.71
2018-12-19T12:20:43.158Z,59109.59
2018-12-19T12:23:11.660Z,59076.71
2018-12-19T12:25:40.280Z,59102.39
2018-12-19T12:28:09.076Z,59110.61
2018-12-19T12:30:37.605Z,59089.04
2018-12-19T12:33:06.234Z,59085.96
2018-12-19T12:35:34.722Z,59098.29
2018-12-19T12:38:05.432Z,59131.16
2018-12-19T12:40:34.380Z,59074.66
2018-12-19T12:43:05.439Z,59092.12
2018-12-19T12:45:33.991Z,59107.54
2018-12-19T12:48:03.994Z,59103.42
2018-12-19T12:50:32.608Z,59075.69
2018-12-19T12:53:04.539Z,59109.59
2018-12-19T12:55:33.461Z,59090.07
2018-12-19T12:58:03.853Z,59093.15
2018-12-19T13:00:32.451Z,59054.11
2018-12-19T13:03:00.947Z,59091.09
2018-12-19T13:05:29.485Z,59091.09
2018-12-19T13:07:57.959Z,59111.64
2018-12-19T13:10:26.455Z,59107.54
2018-12-19T13:12:54.950Z,59092.12
2018-12-19T13:15:28.484Z,59102.39
2018-12-19T13:17:57.459Z,59099.31
2018-12-19T13:20:26.729Z,59098.29
2018-12-19T13:22:55.222Z,59109.59
2018-12-19T13:25:23.719Z,59076.71
2018-12-19T13:27:52.402Z,59095.20
2018-12-19T13:30:20.891Z,59119.86
2018-12-19T13:32:49.476Z,59076.71
2018-12-19T13:35:18.068Z,59107.54
2018-12-19T13:37:46.579Z,59122.94
2018-12-19T13:40:15.058Z,59108.56
2018-12-19T13:42:43.621Z,59099.31
2018-12-19T13:45:12.239Z,59083.91
2018-12-19T13:47:40.714Z,59125.00
2018-12-19T13:50:09.465Z,59091.09
2018-12-19T13:52:38.538Z,59077.74
2018-12-19T13:55:07.307Z,59043.84
2018-12-19T13:57:35.860Z,59080.82
2018-12-19T14:00:07.806Z,59077.74
2018-12-19T14:02:36.483Z,59066.44
2018-12-19T14:05:05.310Z,59098.29
2018-12-19T14:07:33.760Z,59082.87
2018-12-19T14:10:03.752Z,59043.84
2018-12-19T14:12:32.246Z,59095.20
2018-12-19T14:15:00.708Z,59098.29
2018-12-19T14:17:29.201Z,59073.63
2018-12-19T14:19:58.031Z,59086.98
2018-12-19T14:22:26.534Z,59071.57
2018-12-19T14:24:55.054Z,59038.70
2018-12-19T14:27:23.545Z,59063.36
2018-12-19T14:29:52.028Z,59082.87
2018-12-19T14:32:20.537Z,59096.23
2018-12-19T14:34:49.148Z,59128.08
2018-12-19T14:37:17.654Z,59073.63
2018-12-19T14:39:46.426Z,59075.69
2018-12-19T14:42:19.066Z,59090.07
2018-12-19T14:44:45.660Z,59066.44
2018-12-19T14:47:14.145Z,59098.29
2018-12-19T14:49:42.610Z,59104.45
2018-12-19T14:52:11.123Z,59105.48
2018-12-19T14:54:43.122Z,59104.45
2018-12-19T14:57:11.627Z,59115.75
2018-12-19T14:59:40.103Z,59084.93
2018-12-19T15:02:08.582Z,59116.78
2018-12-19T15:04:37.117Z,59105.48
2018-12-19T15:07:05.614Z,59104.45
2018-12-19T15:09:34.134Z,59082.87
2018-12-19T15:12:05.298Z,59097.26
2018-12-19T15:14:33.806Z,59094.18
2018-12-19T15:17:04.143Z,59095.20
2018-12-19T15:19:32.908Z,59112.67
2018-12-19T15:22:02.785Z,59098.29
2018-12-19T15:24:31.300Z,59091.09
2018-12-19T15:26:59.798Z,59092.12
2018-12-19T15:29:28.279Z,59122.94
2018-12-19T15:31:56.803Z,59136.30
2018-12-19T15:34:25.299Z,59102.39
2018-12-19T15:36:53.788Z,59111.64
2018-12-19T15:39:22.377Z,59120.89
2018-12-19T15:41:51.043Z,59103.42
2018-12-19T15:44:19.508Z,59095.20
2018-12-19T15:46:48.278Z,59078.77
2018-12-19T15:49:16.879Z,59123.97
2018-12-19T15:51:45.417Z,59139.38
2018-12-19T15:54:13.924Z,59085.96
2018-12-19T15:56:42.684Z,59129.11
2018-12-19T15:59:11.214Z,59105.48
2018-12-19T16:01:39.726Z,59121.92
2018-12-19T16:04:08.206Z,59123.97
2018-12-19T16:06:36.715Z,59068.50
2018-12-19T16:09:06.865Z,59110.61
2018-12-19T16:11:35.375Z,59127.05
2018-12-19T16:14:05.306Z,59076.71
2018-12-19T16:16:33.850Z,59104.45
2018-12-19T16:19:03.866Z,59093.15
2018-12-19T16:21:32.349Z,59117.81
2018-12-19T16:24:00.846Z,59123.97
2018-12-19T16:26:29.348Z,59128.08
2018-12-19T16:28:58.119Z,59105.48
2018-12-19T16:31:26.599Z,59110.61
2018-12-19T16:33:55.137Z,59108.56
2018-12-19T16:36:23.664Z,59149.66
2018-12-19T16:38:52.275Z,59120.89
2018-12-19T16:41:20.845Z,59113.70
2018-12-19T16:43:49.417Z,59155.82
2018-12-19T16:46:17.905Z,59125.00
2018-12-19T16:48:46.409Z,59140.41
2018-12-19T16:51:16.654Z,59120.89
2018-12-19T16:53:45.267Z,59117.81
2018-12-19T16:56:14.191Z,59130.14
2018-12-19T16:58:42.707Z,59143.49
2018-12-19T17:01:11.259Z,59150.68
2018-12-19T17:03:39.745Z,59107.54
2018-12-19T17:06:08.445Z,59134.25
2018-12-19T17:08:37.462Z,59123.97
2018-12-19T17:11:05.939Z,59121.92
2018-12-19T17:13:34.656Z,59109.59
2018-12-19T17:16:04.920Z,59135.27
2018-12-19T17:18:33.404Z,59123.97
2018-12-19T17:21:06.128Z,59133.22
2018-12-19T17:23:34.681Z,59111.64
2018-12-19T17:26:06.205Z,59151.71
2018-12-19T17:28:34.859Z,59130.14
2018-12-19T17:31:07.194Z,59122.94
2018-12-19T17:33:35.725Z,59126.03
2018-12-19T17:36:06.021Z,59109.59
2018-12-19T17:38:34.511Z,59136.30
2018-12-19T17:41:04.813Z,59099.31
2018-12-19T17:43:33.293Z,59153.77
2018-12-19T17:46:03.177Z,59125.00
2018-12-19T17:48:31.725Z,59101.37
2018-12-19T17:51:00.316Z,59126.03
2018-12-19T17:53:28.796Z,59111.64
2018-12-19T17:55:57.387Z,59120.89
2018-12-19T17:58:25.882Z,59070.55
2018-12-19T18:00:54.487Z,59152.74
2018-12-19T18:03:22.983Z,59125.00
2018-12-19T18:05:51.461Z,59128.08
2018-12-19T18:08:19.923Z,59158.90
2018-12-19T18:10:48.617Z,59133.22
2018-12-19T18:13:17.130Z,59149.66
2018-12-19T18:15:45.647Z,59135.27
2018-12-19T18:18:14.188Z,59122.94
2018-12-19T18:20:42.993Z,59107.54
2018-12-19T18:23:11.504Z,59114.72
2018-12-19T18:25:40.069Z,59137.33
2018-12-19T18:28:08.686Z,59136.30
2018-12-19T18:30:37.460Z,59149.66
2018-12-19T18:33:06.283Z,59138.36
2018-12-19T18:35:34.910Z,59122.94
2018-12-19T18:38:05.439Z,59150.68
2018-12-19T18:40:34.008Z,59134.25
2018-12-19T18:43:03.760Z,59130.14
2018-12-19T18:45:32.291Z,59125.00
2018-12-19T18:48:00.937Z,59139.38
2018-12-19T18:50:29.809Z,59137.33
2018-12-19T18:52:58.473Z,59122.94
2018-12-19T18:55:27.153Z,59153.77
2018-12-19T18:57:56.179Z,59146.57
2018-12-19T19:00:34.827Z,59155.82
2018-12-19T19:03:05.137Z,59122.94
2018-12-19T19:05:33.689Z,59107.54
2018-12-19T19:08:04.922Z,59128.08
2018-12-19T19:10:33.472Z,59138.36
2018-12-19T19:13:03.754Z,59159.93
2018-12-19T19:15:32.746Z,59119.86
2018-12-19T19:18:03.894Z,59107.54
2018-12-19T19:20:33.389Z,59102.39
2018-12-19T19:23:02.856Z,59113.70
2018-12-19T19:25:31.528Z,59138.36
2018-12-19T19:28:00.831Z,59114.72
2018-12-19T19:30:29.389Z,59122.94
2018-12-19T19:32:58.574Z,59133.22
2018-12-19T19:35:27.152Z,59119.86
2018-12-19T19:37:55.750Z,59106.50
2018-12-19T19:40:24.339Z,59111.64
2018-12-19T19:42:52.954Z,59104.45
2018-12-19T19:45:21.593Z,59122.94
2018-12-19T19:47:50.216Z,59121.92
2018-12-19T19:50:18.980Z,59130.14
2018-12-19T19:52:48.034Z,59128.08
2018-12-19T19:55:16.821Z,59103.42
2018-12-19T19:57:45.913Z,59152.74
2018-12-19T20:00:16.817Z,59143.49
2018-12-19T20:02:45.539Z,59138.36
2018-12-19T20:05:14.457Z,59154.79
2018-12-19T20:07:43.962Z,59109.59
2018-12-19T20:10:12.992Z,59150.68
2018-12-19T20:12:42.043Z,59155.82
2018-12-19T20:15:10.672Z,59140.41
2018-12-19T20:17:40.400Z,59133.22
2018-12-19T20:20:10.307Z,59147.60
2018-12-19T20:22:39.136Z,59115.75
2018-12-19T20:25:07.894Z,59147.60
2018-12-19T20:27:36.642Z,59155.82
2018-12-19T20:30:10.419Z,59149.66
2018-12-19T20:32:39.076Z,59145.55
2018-12-19T20:35:07.869Z,59141.44
2018-12-19T20:37:37.296Z,59158.90
2018-12-19T20:40:06.249Z,59154.79
2018-12-19T20:42:36.502Z,59166.09
2018-12-19T20:45:05.948Z,59164.04
2018-12-19T20:47:34.816Z,59156.85
2018-12-19T20:50:04.469Z,59140.41
2018-12-19T20:52:33.061Z,59193.83
2018-12-19T20:55:03.329Z,59193.83
2018-12-19T20:57:32.162Z,59200.00
2018-12-19T21:00:00.760Z,59184.59
2018-12-19T21:02:29.387Z,59164.04
2018-12-19T21:04:58.073Z,59173.29
2018-12-19T21:07:26.727Z,59189.72
2018-12-19T21:09:55.306Z,59214.38
2018-12-19T21:12:23.969Z,59215.41
2018-12-19T21:14:53.187Z,59182.53
2018-12-19T21:17:26.944Z,59197.94
2018-12-19T21:19:55.725Z,59161.98
2018-12-19T21:22:24.413Z,59195.89
2018-12-19T21:24:52.969Z,59225.68
2018-12-19T21:27:22.522Z,59218.49
2018-12-19T21:29:51.338Z,59249.31
2018-12-19T21:32:20.092Z,59222.60
2018-12-19T21:34:48.701Z,59245.20
2018-12-19T21:37:17.624Z,59218.49
2018-12-19T21:39:46.172Z,59220.54
2018-12-19T21:42:14.754Z,59205.13
2018-12-19T21:44:43.471Z,59202.05
2018-12-19T21:47:12.116Z,59205.13
2018-12-19T21:49:40.700Z,59213.35
2018-12-19T21:52:09.265Z,59203.08
2018-12-19T21:54:38.188Z,59228.76
2018-12-19T21:57:06.834Z,59235.96
2018-12-19T21:59:35.715Z,59225.68
2018-12-19T22:02:05.791Z,59195.89
2018-12-19T22:04:34.377Z,59184.59
2018-12-19T22:07:04.945Z,59200.00
2018-12-19T22:09:33.492Z,59208.21
2018-12-19T22:12:03.227Z,59216.43
2018-12-19T22:14:31.749Z,59204.11
2018-12-19T22:17:05.616Z,59212.32
2018-12-19T22:19:34.136Z,59209.24
2018-12-19T22:22:03.590Z,59220.54
2018-12-19T22:24:32.300Z,59216.43
2018-12-19T22:27:00.783Z,59225.68
2018-12-19T22:29:29.698Z,59203.08
2018-12-19T22:31:58.648Z,59208.21
2018-12-19T22:34:27.206Z,59215.41
2018-12-19T22:36:55.795Z,59200.00
2018-12-19T22:39:24.332Z,59220.54
2018-12-19T22:41:53.042Z,59195.89
2018-12-19T22:44:21.728Z,59233.90
2018-12-19T22:46:55.996Z,59239.04
2018-12-19T22:49:24.579Z,59209.24
2018-12-19T22:51:53.084Z,59211.30
2018-12-19T22:54:21.813Z,59214.38
2018-12-19T22:56:50.489Z,59195.89
2018-12-19T22:59:19.160Z,59228.76
2018-12-19T23:02:54.420Z,59200.00
2018-12-19T23:05:28.230Z,59198.97
2018-12-19T23:07:56.796Z,59211.30
2018-12-19T23:10:25.489Z,59225.68
2018-12-19T23:12:54.087Z,59228.76
2018-12-19T23:15:24.620Z,59194.86
2018-12-19T23:17:55.559Z,59171.23
2018-12-19T23:20:24.168Z,59248.29
2018-12-19T23:22:52.733Z,59212.32
2018-12-19T23:25:21.288Z,59216.43
2018-12-19T23:27:49.794Z,59229.79
2018-12-19T23:30:18.280Z,59225.68
2018-12-19T23:32:47.012Z,59252.39
2018-12-19T23:35:15.561Z,59202.05
2018-12-19T23:37:44.066Z,59189.72
2018-12-19T23:40:12.674Z,59250.34
2018-12-19T23:42:41.330Z,59211.30
2018-12-19T23:45:10.198Z,59204.11
2018-12-19T23:47:38.772Z,59179.45
2018-12-19T23:50:07.442Z,59216.43
2018-12-19T23:52:36.555Z,59233.90
2018-12-19T23:55:06.767Z,59190.75
2018-12-19T23:57:35.401Z,59209.24
